• Join FlightAware (Why Join?)
  • Login
  • US Flag 
03:51AM EDT


 

Airport Tracker/Info


-or-


 

Live Flight TrackerFlight Track Log ✈ SKW4664 ✈ 25-Apr-2013 ✈ KFSD - KMSP

Flight Track Log - Related Links

Times and Time Zones

All times are in EDT time to prevent confusion due to time zone crossing. See the SKW4664 flight status page for this flight to view local times or setup timezone preferences in your user account.

Time Position Orientation Groundspeed Altitude Reporting Facility
EDT Latitude Longitude Course Direction KTS MPH feet Rate Location/Type
12:05PM 43.5392 -96.7169 121° Southeast 230 265 4,200  Level Minneapolis Center
12:06PM 43.5853 -96.6425 49° Northeast 248 285 6,500 2,760 Climbing Minneapolis Center
12:07PM 43.8523 -96.2348 53° Northeast  Level FlightAware Approximate
12:07PM 43.6467 -96.5386 51° Northeast 275 316 10,000  Level Minneapolis Center
12:08PM 43.9221 -96.1068 52° Northeast  Level FlightAware Approximate
12:08PM 43.6989 -96.4483 51° Northeast 289 333 12,200  Level Minneapolis Center
12:09PM 43.9929 -95.9798 52° Northeast  Level FlightAware Approximate
12:09PM 43.7581 -96.3494 50° Northeast 321 369 14,500  Level Minneapolis Center
12:10PM 43.8192 -96.2481 50° Northeast 343 395 16,400 1,740 Climbing Minneapolis Center
12:11PM 43.8811 -96.1442 50° Northeast 351 404 18,100 1,860 Climbing Minneapolis Center
12:12PM 43.9553 -96.0158 51° Northeast 359 413 20,300 1,680 Climbing Minneapolis Center
12:13PM 44.0200 -95.9072 50° Northeast 367 422 21,600 1,260 Climbing Minneapolis Center
12:14PM 44.0856 -95.7939 51° Northeast 379 436 23,000 660 Climbing Minneapolis Center
12:15PM 44.1539 -95.6781 51° Northeast 388 447 23,000  Level Minneapolis Center
12:16PM 44.2203 -95.5636 51° Northeast 386 444 23,000  Level Minneapolis Center
12:17PM 44.2992 -95.4278 51° Northeast 380 437 23,000  Level Minneapolis Center
12:18PM 44.3639 -95.3153 51° Northeast 377 434 23,000  Level Minneapolis Center
12:19PM 44.4292 -95.2014 51° Northeast 376 433 23,000  Level Minneapolis Center
12:21PM 44.4850 -95.0769 58° Northeast 378 435 23,000  Level Minneapolis Center
12:22PM 44.5156 -94.9278 74° East 391 450 23,000 -360 Level Minneapolis Center
12:23PM 44.5503 -94.7825 71° East 395 455 22,300 -1,920 Descending Minneapolis Center
12:24PM 44.5906 -94.6103 72° East 393 452 19,100 -2,700 Descending Minneapolis Center
12:25PM 44.6258 -94.4833 69° East 377 434 16,900 -2,280 Descending FAA TRACON SMA TRACON (SMA)
12:25PM 44.6347 -94.4408 74° East 373 429 16,100 -2,700 Descending FAA TRACON SMA TRACON (SMA)
12:25PM 44.6472 -94.3883 71° East 369 425 15,100 -2,580 Descending FAA TRACON SMA TRACON (SMA)
12:26PM 44.6561 -94.3472 73° East 362 417 14,400 -2,340 Descending FAA TRACON SMA TRACON (SMA)
12:26PM 44.6658 -94.3061 72° East 358 412 13,600 -2,820 Descending FAA TRACON SMA TRACON (SMA)
12:26PM 44.6775 -94.2564 72° East 352 405 12,600 -2,580 Descending FAA TRACON SMA TRACON (SMA)
12:27PM 44.6847 -94.2156 76° East 349 402 11,900 -2,280 Descending FAA TRACON SMA TRACON (SMA)
12:27PM 44.6931 -94.1761 73° East 344 396 11,100 -1,380 Descending FAA TRACON SMA TRACON (SMA)
12:27PM 44.7050 -94.1292 70° East 335 386 11,000 -180 Descending FAA TRACON SMA TRACON (SMA)
12:28PM 44.7117 -94.0908 76° East 328 377 11,000  Level FAA TRACON SMA TRACON (SMA)
12:28PM 44.7197 -94.0528 73° East 329 379 11,000  Level FAA TRACON SMA TRACON (SMA)
12:28PM 44.7306 -94.0061 72° East 327 376 11,000  Level FAA TRACON SMA TRACON (SMA)
12:29PM 44.7383 -93.9683 74° East 328 377 11,000  Level FAA TRACON SMA TRACON (SMA)
12:29PM 44.7461 -93.9306 74° East 326 375 11,000  Level FAA TRACON SMA TRACON (SMA)
12:29PM 44.7556 -93.8839 74° East 325 374 11,000  Level FAA TRACON SMA TRACON (SMA)
12:30PM 44.7642 -93.8467 72° East 324 373 11,000  Level FAA TRACON SMA TRACON (SMA)
12:30PM 44.7731 -93.8094 71° East 325 374 11,000  Level FAA TRACON SMA TRACON (SMA)
12:30PM 44.7828 -93.7617 74° East 330 380 11,000  Level FAA TRACON SMA TRACON (SMA)
12:31PM 44.7911 -93.7239 73° East 330 380 11,000  Level FAA TRACON SMA TRACON (SMA)
12:31PM 44.7997 -93.6861 72° East 331 381 11,000 -480 Level FAA TRACON SMA TRACON (SMA)
12:31PM 44.8100 -93.6386 73° East 329 379 10,700 -900 Descending FAA TRACON SMA TRACON (SMA)
12:32PM 44.8175 -93.6031 73° East 316 364 10,400 -900 Descending FAA TRACON SMA TRACON (SMA)
12:32PM 44.8253 -93.5686 72° East 302 348 10,100 -1,080 Descending FAA TRACON SMA TRACON (SMA)
12:32PM 44.8344 -93.5253 73° East 300 345 9,700 -1,080 Descending FAA TRACON SMA TRACON (SMA)
12:33PM 44.8425 -93.4903 72° East 302 348 9,400 -900 Descending FAA TRACON SMA TRACON (SMA)
12:33PM 44.8497 -93.4556 74° East 302 348 9,100 -1,080 Descending FAA TRACON SMA TRACON (SMA)
12:33PM 44.8586 -93.4111 74° East 305 351 8,700 -1,080 Descending FAA TRACON SMA TRACON (SMA)
12:34PM 44.8536 -93.3756 101° East 310 357 8,400 -900 Descending FAA TRACON SMA TRACON (SMA)
12:34PM 44.8389 -93.3472 126° Southeast 302 348 8,100 -600 Descending FAA TRACON SMA TRACON (SMA)
12:34PM 44.8208 -93.3122 126° Southeast 284 327 8,000 -180 Descending FAA TRACON SMA TRACON (SMA)
12:35PM 44.8069 -93.2839 125° Southeast 284 327 8,000  Level FAA TRACON SMA TRACON (SMA)
12:35PM 44.7889 -93.2475 125° Southeast 294 338 8,000 -180 Level FAA TRACON SMA TRACON (SMA)
12:35PM 44.7744 -93.2178 124° Southeast 297 342 7,900 -480 Descending FAA TRACON SMA TRACON (SMA)
12:36PM 44.7608 -93.1894 124° Southeast 289 333 7,700 -960 Descending FAA TRACON SMA TRACON (SMA)
12:36PM 44.7475 -93.1617 124° Southeast 280 322 7,300 -1,380 Descending FAA TRACON SMA TRACON (SMA)
12:36PM 44.7311 -93.1275 124° Southeast 275 316 6,800 -1,380 Descending FAA TRACON SMA TRACON (SMA)
12:37PM 44.7178 -93.1008 125° Southeast 272 313 6,400 -1,980 Descending FAA TRACON SMA TRACON (SMA)
12:37PM 44.7028 -93.0658 121° Southeast 272 313 5,500 -2,400 Descending FAA TRACON SMA TRACON (SMA)
12:37PM 44.7025 -93.0331 91° East 283 326 4,800 -1,800 Descending FAA TRACON SMA TRACON (SMA)
12:38PM 44.7147 -93.0075 56° Northeast 279 321 4,300 -1,200 Descending FAA TRACON SMA TRACON (SMA)
12:38PM 44.7369 -92.9825 39° Northeast 265 305 4,000 -480 Descending FAA TRACON SMA TRACON (SMA)
12:38PM 44.7544 -92.9644 36° Northeast 257 296 4,000  Level FAA TRACON SMA TRACON (SMA)
12:39PM 44.7750 -92.9608 North 258 297 4,000 -180 Level FAA TRACON SMA TRACON (SMA)
12:39PM 44.7947 -92.9833 321° Northwest 253 291 3,900 -180 Descending FAA TRACON SMA TRACON (SMA)
12:39PM 44.7994 -93.0083 285° West 232 267 3,900 -300 Level FAA TRACON SMA TRACON (SMA)
12:40PM 44.8044 -93.0314 287° West 206 237 3,700 -960 Descending FAA TRACON SMA TRACON (SMA)
12:40PM 44.8128 -93.0589 293° West 196 226 3,300 -1,320 Descending FAA TRACON SMA TRACON (SMA)